Time;durP1;ratioP1;P1;durP2;ratioP2;P2;SDS_P1;SDS_P2;PMS_P1;PMS_P2;Temp;Humidity;BMP_temperature;BMP_pressure;BME280_temperature;BME280_humidity;BME280_pressure;Samples;Min_cycle;Max_cycle;Signal;HPM_P1;HPM_P2
2021/03/21 00:00:49;;;;;;;130.32;77.72;;;77.20;2227.20;;;;;;4993023;28;20086;-82
2021/03/21 00:07:22;;;;;;;145.55;84.13;;;77.10;2227.20;;;;;;5020923;28;20025;-82
2021/03/21 00:10:44;;;;;;;169.32;99.10;;;77.10;2227.20;;;;;;5017957;28;20019;-82
2021/03/21 00:31:13;;;;;;;106.45;61.15;;;77.10;2227.20;;;;;;4962160;29;20064;-83
2021/03/21 00:34:53;;;;;;;80.50;40.58;;;77.20;2227.20;;;;;;4923168;29;20021;-83
2021/03/21 00:41:34;;;;;;;61.95;42.03;;;77.20;2227.20;;;;;;4909729;29;20044;-82
2021/03/21 00:45:09;;;;;;;145.93;71.20;;;77.20;2227.20;;;;;;4857230;29;20034;-82
2021/03/21 00:52:12;;;;;;;116.60;64.35;;;77.20;2227.20;;;;;;4867278;29;20041;-82
2021/03/21 00:55:07;;;;;;;110.63;63.33;;;77.20;2227.20;;;;;;4866350;29;20018;-82
2021/03/21 00:58:41;;;;;;;92.07;54.00;;;77.10;2227.20;;;;;;4866775;29;20041;-82
2021/03/21 01:01:51;;;;;;;92.32;53.35;;;77.20;2227.20;;;;;;4811842;29;20107;-82
2021/03/21 01:08:43;;;;;;;75.97;48.95;;;77.20;2227.20;;;;;;4845569;29;20035;-82
2021/03/21 01:12:08;;;;;;;79.70;49.70;;;77.20;2227.20;;;;;;4829252;29;20084;-80
2021/03/21 01:15:35;;;;;;;74.63;51.00;;;77.10;2227.20;;;;;;4809517;29;20130;-81
2021/03/21 01:19:01;;;;;;;77.15;46.70;;;77.10;2227.20;;;;;;4799436;29;20045;-82
2021/03/21 01:22:32;;;;;;;85.00;51.00;;;77.10;2227.20;;;;;;4808871;29;20039;-80
2021/03/21 01:25:40;;;;;;;77.10;50.30;;;77.20;2227.20;;;;;;4791167;30;20083;-83
2021/03/21 01:32:40;;;;;;;82.75;48.85;;;77.10;2227.20;;;;;;4771886;30;20098;-81
2021/03/21 01:36:03;;;;;;;73.60;47.33;;;77.10;2227.20;;;;;;4763397;30;20048;-81
2021/03/21 01:39:10;;;;;;;99.40;59.08;;;76.90;2227.20;;;;;;4765203;30;20078;-81
2021/03/21 01:49:32;;;;;;;103.15;57.47;;;77.10;2227.20;;;;;;4804510;29;20077;-81
2021/03/21 01:52:43;;;;;;;102.97;53.00;;;77.00;2227.20;;;;;;4815861;29;20099;-82
2021/03/21 02:03:07;;;;;;;88.05;46.20;;;77.20;2227.20;;;;;;4844472;29;20029;-81
2021/03/21 02:06:16;;;;;;;96.50;56.08;;;77.20;2227.20;;;;;;4812146;29;20023;-81
2021/03/21 02:09:55;;;;;;;91.85;50.25;;;77.20;2227.20;;;;;;4826172;29;20034;-81
2021/03/21 02:13:25;;;;;;;102.45;58.03;;;77.30;2227.20;;;;;;4804843;30;20071;-81
2021/03/21 02:16:46;;;;;;;98.20;56.13;;;77.20;2227.20;;;;;;4762833;30;20039;-81
2021/03/21 02:19:56;;;;;;;65.88;43.38;;;77.10;2227.20;;;;;;4764250;30;20082;-81
2021/03/21 02:23:42;;;;;;;55.70;33.97;;;77.20;2227.20;;;;;;4763476;30;20058;-81
2021/03/21 02:27:08;;;;;;;64.80;37.67;;;77.20;2227.20;;;;;;4771719;30;20035;-81
2021/03/21 02:30:31;;;;;;;72.20;42.28;;;77.10;2227.20;;;;;;4771466;30;20040;-82
2021/03/21 02:34:12;;;;;;;67.95;41.20;;;77.00;2227.20;;;;;;4848283;29;20155;-81
2021/03/21 02:37:24;;;;;;;65.63;39.78;;;76.90;2227.20;;;;;;4843675;29;20061;-80
2021/03/21 02:41:04;;;;;;;55.65;35.70;;;76.90;2227.20;;;;;;4843736;29;20054;-81
2021/03/21 02:44:37;;;;;;;51.50;32.35;;;77.00;2227.20;;;;;;4828180;29;20042;-81
2021/03/21 02:51:55;;;;;;;42.50;26.67;;;77.10;2227.20;;;;;;4844239;29;20055;-82
2021/03/21 02:55:14;;;;;;;53.78;33.25;;;77.10;2227.20;;;;;;4832168;29;20042;-81
2021/03/21 02:58:27;;;;;;;50.30;33.15;;;77.20;2227.20;;;;;;4827249;29;20031;-81
2021/03/21 03:01:35;;;;;;;45.15;29.60;;;77.20;2227.20;;;;;;4839042;29;20045;-80
2021/03/21 03:05:02;;;;;;;50.28;31.00;;;77.20;2227.20;;;;;;4847657;29;20030;-81
2021/03/21 03:42:34;;;;;;;44.83;27.70;;;77.10;2227.20;;;;;;4883241;29;20052;-79
2021/03/21 03:49:13;;;;;;;57.65;34.92;;;77.00;2227.20;;;;;;4875126;29;20157;-80
2021/03/21 03:52:31;;;;;;;59.95;34.42;;;77.00;2227.20;;;;;;4875460;29;20084;-81
2021/03/21 03:56:07;;;;;;;60.75;35.47;;;77.00;2227.20;;;;;;4875559;29;20063;-81
2021/03/21 03:59:22;;;;;;;51.40;31.38;;;77.00;2227.20;;;;;;4820185;29;20454;-82
2021/03/21 04:03:01;;;;;;;62.03;37.70;;;77.00;2227.20;;;;;;4787621;30;20031;-84
2021/03/21 04:06:27;;;;;;;114.80;57.78;;;77.00;2227.20;;;;;;4762855;30;20110;-82
2021/03/21 04:09:53;;;;;;;59.25;33.17;;;76.90;2227.20;;;;;;4828258;29;20073;-81
2021/03/21 04:16:48;;;;;;;96.05;52.42;;;77.00;2227.20;;;;;;4858074;29;20041;-81
2021/03/21 04:20:12;;;;;;;97.78;56.75;;;76.90;2227.20;;;;;;4846438;29;20035;-81
2021/03/21 04:37:24;;;;;;;109.22;61.83;;;77.00;2227.20;;;;;;4883117;29;20069;-81
2021/03/21 04:40:56;;;;;;;108.63;66.90;;;77.00;2227.20;;;;;;4882722;29;20104;-80
2021/03/21 04:43:54;;;;;;;109.88;56.97;;;77.00;2227.20;;;;;;4848264;29;20505;-81
2021/03/21 04:46:48;;;;;;;140.93;64.45;;;77.00;2227.20;;;;;;4848633;29;20103;-81
2021/03/21 04:50:02;;;;;;;101.82;53.90;;;76.90;2227.20;;;;;;4814626;29;20034;-80
2021/03/21 04:53:33;;;;;;;107.38;57.63;;;76.90;2227.20;;;;;;4791056;30;20039;-81
2021/03/21 04:57:21;;;;;;;79.53;45.33;;;77.00;2227.20;;;;;;4773038;30;20096;-81
2021/03/21 05:00:50;;;;;;;141.80;69.05;;;76.90;2227.20;;;;;;4754843;30;20060;-81
2021/03/21 05:08:23;;;;;;;75.57;43.63;;;76.80;2227.20;;;;;;4759565;30;20039;-81
2021/03/21 05:11:54;;;;;;;70.82;39.03;;;76.90;2227.20;;;;;;4728069;30;20061;-81
2021/03/21 05:15:16;;;;;;;107.05;52.63;;;76.90;2227.20;;;;;;4688612;30;20032;-81
2021/03/21 05:19:12;;;;;;;106.70;58.15;;;76.90;2227.20;;;;;;4669020;30;20043;-80
2021/03/21 05:26:41;;;;;;;100.47;60.38;;;52.10;2227.20;;;;;;4617012;31;20145;-80
2021/03/21 05:33:12;;;;;;;86.15;55.20;;;76.90;2227.20;;;;;;4641723;30;20098;-81
2021/03/21 05:40:10;;;;;;;41.95;27.08;;;76.80;2227.20;;;;;;4702326;30;20045;-80
2021/03/21 06:01:52;;;;;;;41.92;29.33;;;77.00;2227.20;;;;;;4996237;28;20050;-81
2021/03/21 06:05:22;;;;;;;85.97;42.80;;;77.10;2227.20;;;;;;4938117;28;20099;-81
2021/03/21 06:08:50;;;;;;;109.70;56.53;;;77.00;2227.20;;;;;;4994342;28;20038;-81
2021/03/21 06:12:15;;;;;;;119.57;66.57;;;77.00;2227.20;;;;;;4937805;29;20016;-81
2021/03/21 06:22:18;;;;;;;129.25;78.05;;;77.00;2227.20;;;;;;4937476;29;20051;-81
2021/03/21 06:29:29;;;;;;;106.80;67.18;;;77.10;2227.20;;;;;;4897348;29;20028;-80
2021/03/21 06:32:37;;;;;;;207.73;112.38;;;77.00;2227.20;;;;;;4874485;29;20025;-81
2021/03/21 06:35:58;;;;;;;145.13;79.60;;;77.10;2227.20;;;;;;4887164;29;20048;-80
2021/03/21 06:38:48;;;;;;;131.50;71.75;;;77.10;2227.20;;;;;;4899772;29;20089;-80
2021/03/21 06:41:50;;;;;;;132.73;77.70;;;77.00;2227.20;;;;;;4913326;29;20088;-80
2021/03/21 06:45:01;;;;;;;96.53;63.45;;;77.00;2227.20;;;;;;4931349;29;20039;-79
2021/03/21 06:47:48;;;;;;;134.02;84.32;;;76.90;2227.20;;;;;;4930331;29;20132;-79
2021/03/21 06:50:58;;;;;;;139.27;87.90;;;77.00;2227.20;;;;;;4961197;28;20031;-80
2021/03/21 06:53:44;;;;;;;117.50;74.00;;;77.00;2227.20;;;;;;4969986;28;20046;-80
2021/03/21 06:56:47;;;;;;;118.63;73.45;;;77.00;2227.20;;;;;;4965266;28;20125;-80
2021/03/21 06:59:44;;;;;;;118.32;75.57;;;77.10;2227.20;;;;;;4968796;29;20029;-79
2021/03/21 07:02:41;;;;;;;127.70;86.03;;;77.10;2227.20;;;;;;4969844;29;20031;-81
2021/03/21 07:05:46;;;;;;;140.27;94.75;;;77.40;2227.20;;;;;;4952266;29;20397;-80
2021/03/21 07:47:35;;;;;;;59.65;47.53;;;77.20;2227.20;;;;;;5032374;23;20047;-80
2021/03/21 07:50:25;;;;;;;44.90;33.33;;;77.20;2227.20;;;;;;4971132;28;20042;-80
2021/03/21 07:53:09;;;;;;;56.22;39.20;;;77.30;2227.20;;;;;;4974315;28;20046;-80
2021/03/21 07:55:50;;;;;;;60.70;40.55;;;77.30;2227.20;;;;;;4966495;28;20440;-79
2021/03/21 07:58:44;;;;;;;94.70;61.17;;;77.40;2227.20;;;;;;4972386;28;20053;-79
2021/03/21 08:01:10;;;;;;;105.35;79.63;;;77.30;2227.20;;;;;;4974027;28;20043;-79
2021/03/21 08:03:56;;;;;;;104.75;94.25;;;77.40;2227.20;;;;;;4973117;28;20493;-78
2021/03/21 08:06:38;;;;;;;78.68;68.68;;;77.30;2227.20;;;;;;4973108;28;20041;-79
2021/03/21 08:09:19;;;;;;;86.78;66.88;;;77.50;2227.20;;;;;;4986326;28;20086;-79
2021/03/21 08:12:21;;;;;;;111.22;81.35;;;77.50;2227.20;;;;;;4972884;28;20124;-79
2021/03/21 08:15:05;;;;;;;92.80;67.18;;;77.60;2227.20;;;;;;4947768;28;20038;-79
2021/03/21 08:17:39;;;;;;;68.18;53.17;;;77.60;2227.20;;;;;;4970833;28;20054;-79
2021/03/21 08:20:18;;;;;;;66.68;48.92;;;77.60;2227.20;;;;;;4968642;28;20035;-79
2021/03/21 08:22:45;;;;;;;65.78;58.92;;;77.60;2227.20;;;;;;4963810;28;20035;-78
2021/03/21 08:25:27;;;;;;;63.58;56.67;;;77.60;2227.20;;;;;;4958414;28;20027;-78
2021/03/21 08:27:55;;;;;;;77.05;69.03;;;77.70;2227.20;;;;;;4959450;28;20034;-77
2021/03/21 08:30:23;;;;;;;66.68;59.60;;;77.70;2227.20;;;;;;4945549;29;20039;-78
2021/03/21 08:32:59;;;;;;;112.68;80.75;;;77.60;2227.20;;;;;;4947238;29;20044;-79
2021/03/21 08:35:31;;;;;;;104.05;68.60;;;77.60;2227.20;;;;;;4944943;29;20038;-79
2021/03/21 08:38:03;;;;;;;108.38;85.68;;;77.60;2227.20;;;;;;4943320;29;20122;-79
2021/03/21 08:40:34;;;;;;;81.17;67.70;;;77.70;2227.20;;;;;;4959290;29;20043;-78
2021/03/21 08:43:09;;;;;;;50.28;43.20;;;77.60;2227.20;;;;;;4942743;29;20454;-79
2021/03/21 08:45:43;;;;;;;35.38;30.88;;;77.60;2227.20;;;;;;4942223;29;20055;-79
2021/03/21 08:48:13;;;;;;;58.30;51.25;;;77.60;2227.20;;;;;;4942320;29;20027;-79
2021/03/21 08:50:48;;;;;;;63.80;51.60;;;77.60;2227.20;;;;;;4942344;29;20031;-79
2021/03/21 08:53:38;;;;;;;71.38;61.80;;;77.50;2227.20;;;;;;4960175;29;20031;-79
2021/03/21 08:56:11;;;;;;;61.28;53.03;;;77.60;2227.20;;;;;;4959533;28;20028;-79
2021/03/21 08:58:37;;;;;;;87.43;72.45;;;77.60;2227.20;;;;;;4943613;29;20031;-79
2021/03/21 09:01:16;;;;;;;84.70;63.05;;;77.30;2227.20;;;;;;4959857;29;20134;-79
2021/03/21 09:03:43;;;;;;;121.18;91.88;;;77.60;2227.20;;;;;;4943167;29;20024;-79
2021/03/21 09:06:33;;;;;;;134.38;100.40;;;77.60;2227.20;;;;;;4942938;29;20023;-79
2021/03/21 09:09:18;;;;;;;114.57;87.45;;;102.40;2227.20;;;;;;4943459;29;20035;-79
2021/03/21 09:11:46;;;;;;;79.93;67.18;;;102.40;2227.20;;;;;;4969737;28;20045;-78
2021/03/21 09:14:26;;;;;;;71.28;58.92;;;77.70;2227.20;;;;;;4964297;28;20377;-79
2021/03/21 09:16:57;;;;;;;71.28;58.67;;;77.70;2227.20;;;;;;4960551;28;20424;-79
2021/03/21 09:19:37;;;;;;;89.97;77.15;;;102.40;2227.20;;;;;;4961666;28;20119;-79
2021/03/21 09:22:10;;;;;;;86.50;68.80;;;102.40;2227.20;;;;;;4978537;28;20033;-79
2021/03/21 09:24:40;;;;;;;70.70;53.10;;;77.70;2227.20;;;;;;4962899;28;20143;-80
2021/03/21 09:27:36;;;;;;;101.28;83.28;;;102.40;2227.20;;;;;;4980939;28;20027;-79
2021/03/21 09:30:20;;;;;;;78.68;59.25;;;102.40;2227.20;;;;;;4965532;28;20043;-79
2021/03/21 09:32:56;;;;;;;70.28;45.55;;;102.40;2227.20;;;;;;4980456;28;20086;-80
2021/03/21 09:35:45;;;;;;;105.40;69.35;;;102.40;2227.20;;;;;;4963560;28;20027;-80
2021/03/21 09:38:14;;;;;;;86.97;59.42;;;77.70;2227.20;;;;;;4983310;28;20037;-80
2021/03/21 09:40:43;;;;;;;57.65;41.33;;;77.70;2227.20;;;;;;4963785;28;20026;-80
2021/03/21 09:43:21;;;;;;;49.45;38.22;;;102.40;2227.20;;;;;;4964219;28;20035;-78
2021/03/21 09:45:52;;;;;;;56.78;37.28;;;102.40;2227.20;;;;;;4961096;28;20051;-80
2021/03/21 09:48:33;;;;;;;70.57;49.42;;;102.40;2227.20;;;;;;4980016;28;20023;-80
2021/03/21 09:51:42;;;;;;;84.00;60.15;;;77.70;2227.20;;;;;;4960420;28;20366;-80
2021/03/21 09:54:30;;;;;;;102.30;73.40;;;102.40;2227.20;;;;;;4958942;29;20039;-80
2021/03/21 09:57:25;;;;;;;60.45;45.03;;;102.40;2227.20;;;;;;4940564;29;20039;-80
2021/03/21 10:00:00;;;;;;;63.55;49.80;;;102.40;2227.20;;;;;;4925263;29;20039;-79
2021/03/21 10:02:50;;;;;;;73.13;52.80;;;102.40;2227.20;;;;;;4961171;29;20031;-81
2021/03/21 10:05:39;;;;;;;75.55;54.30;;;102.40;2227.20;;;;;;4951076;29;20059;-81
2021/03/21 10:08:43;;;;;;;69.45;49.00;;;102.40;2227.20;;;;;;4965504;29;20525;-81
2021/03/21 10:11:12;;;;;;;72.60;46.13;;;102.50;2227.20;;;;;;4950346;29;20038;-81
2021/03/21 10:13:42;;;;;;;96.55;61.00;;;102.50;2227.20;;;;;;4968512;28;20509;-81
2021/03/21 10:16:13;;;;;;;83.70;51.47;;;102.50;2227.20;;;;;;4935532;29;20035;-81
2021/03/21 10:18:54;;;;;;;68.13;43.20;;;102.50;2227.20;;;;;;4966956;28;20541;-80
2021/03/21 10:21:54;;;;;;;40.38;28.83;;;102.60;2227.20;;;;;;4980156;28;20046;-80
2021/03/21 10:24:40;;;;;;;36.65;25.95;;;102.60;2227.20;;;;;;4983556;28;20070;-80
2021/03/21 10:27:15;;;;;;;48.42;33.75;;;102.50;2227.20;;;;;;4962598;28;20118;-79
2021/03/21 10:29:42;;;;;;;58.55;37.55;;;102.50;2227.20;;;;;;4962085;28;20081;-79
2021/03/21 10:32:31;;;;;;;41.88;26.30;;;102.60;2227.20;;;;;;4960322;28;20023;-80
2021/03/21 10:34:58;;;;;;;43.88;30.80;;;102.60;2227.20;;;;;;4954622;28;20082;-79
2021/03/21 10:37:43;;;;;;;52.13;33.05;;;102.60;2227.20;;;;;;4963238;28;20059;-80
2021/03/21 10:40:30;;;;;;;63.03;41.83;;;102.60;2227.20;;;;;;4962377;28;20031;-80
2021/03/21 10:43:03;;;;;;;42.80;28.52;;;102.60;2227.20;;;;;;4951193;28;20046;-80
2021/03/21 10:45:35;;;;;;;46.25;28.23;;;102.70;2227.20;;;;;;4966246;28;20055;-79
2021/03/21 10:48:32;;;;;;;61.30;42.05;;;102.70;2227.20;;;;;;4961067;28;20071;-80
2021/03/21 10:51:06;;;;;;;50.55;45.30;;;102.70;2227.20;;;;;;4962598;28;20433;-80
2021/03/21 10:54:16;;;;;;;88.45;65.55;;;102.50;2227.20;;;;;;4976396;28;20465;-79
2021/03/21 10:56:42;;;;;;;86.13;57.75;;;102.70;2227.20;;;;;;4967740;28;20034;-80
2021/03/21 10:59:08;;;;;;;86.22;63.85;;;102.70;2227.20;;;;;;4973125;28;20026;-78
2021/03/21 11:01:42;;;;;;;70.82;63.92;;;102.70;2227.20;;;;;;4962960;28;20074;-78
2021/03/21 11:04:19;;;;;;;46.10;37.78;;;102.70;2227.20;;;;;;4960312;28;20081;-78
2021/03/21 11:07:12;;;;;;;38.65;30.95;;;102.80;2227.20;;;;;;4956614;28;20038;-79
2021/03/21 11:09:50;;;;;;;43.22;34.00;;;102.70;2227.20;;;;;;4964739;28;20027;-79
2021/03/21 11:12:30;;;;;;;35.78;27.73;;;102.70;2227.20;;;;;;4964123;28;20057;-79
2021/03/21 11:14:55;;;;;;;34.53;30.63;;;102.70;2227.20;;;;;;4964838;28;20031;-79
2021/03/21 11:17:27;;;;;;;26.73;22.15;;;102.70;2227.20;;;;;;4963432;28;20038;-80
2021/03/21 11:19:58;;;;;;;24.98;21.40;;;102.70;2227.20;;;;;;4961328;28;20160;-79
2021/03/21 11:22:38;;;;;;;29.65;23.27;;;102.70;2227.20;;;;;;4965567;28;20011;-82
2021/03/21 11:25:06;;;;;;;32.53;23.27;;;102.70;2227.20;;;;;;4972323;28;20019;-80
2021/03/21 11:27:38;;;;;;;45.92;32.83;;;102.80;2227.20;;;;;;4966743;28;20493;-80
2021/03/21 11:30:25;;;;;;;48.27;34.53;;;102.80;2227.20;;;;;;4963175;28;20594;-79
2021/03/21 11:32:51;;;;;;;52.17;41.17;;;102.70;2227.20;;;;;;4975228;28;20030;-79
2021/03/21 11:35:24;;;;;;;50.33;39.38;;;102.80;2227.20;;;;;;4982069;28;20041;-80
2021/03/21 11:37:50;;;;;;;54.28;41.60;;;102.80;2227.20;;;;;;4962596;29;20024;-77
2021/03/21 11:40:33;;;;;;;77.07;57.80;;;102.80;2227.20;;;;;;4969313;28;20420;-78
2021/03/21 11:43:30;;;;;;;48.75;36.90;;;102.80;2227.20;;;;;;4964375;28;20055;-78
2021/03/21 11:46:12;;;;;;;44.03;32.70;;;102.80;2227.20;;;;;;4937059;28;20572;-79
2021/03/21 11:48:41;;;;;;;49.08;33.55;;;102.80;2227.20;;;;;;4983388;28;20110;-78
2021/03/21 11:51:16;;;;;;;44.30;31.15;;;102.70;2227.20;;;;;;4981713;28;20073;-80
2021/03/21 11:53:47;;;;;;;46.55;32.58;;;102.80;2227.20;;;;;;4985287;28;20030;-79
2021/03/21 11:56:38;;;;;;;48.17;33.63;;;102.70;2227.20;;;;;;4967533;28;20030;-79
2021/03/21 11:59:12;;;;;;;51.22;39.83;;;102.80;2227.20;;;;;;4984007;28;20031;-79
2021/03/21 12:01:43;;;;;;;53.10;41.63;;;102.80;2227.20;;;;;;4986648;28;20027;-79
2021/03/21 12:04:18;;;;;;;56.08;42.58;;;102.80;2227.20;;;;;;4970004;28;20098;-79
2021/03/21 12:06:49;;;;;;;51.47;42.83;;;102.70;2227.20;;;;;;4984800;28;20033;-79
2021/03/21 12:09:34;;;;;;;57.47;46.70;;;102.80;2227.20;;;;;;4967568;28;20031;-80
2021/03/21 12:12:04;;;;;;;37.10;26.50;;;102.80;2227.20;;;;;;4967144;28;20173;-79
2021/03/21 12:14:32;;;;;;;32.28;23.73;;;102.70;2227.20;;;;;;4967237;28;20034;-80
2021/03/21 12:17:00;;;;;;;35.13;25.88;;;102.70;2227.20;;;;;;4966909;28;20054;-79
2021/03/21 12:19:36;;;;;;;34.35;24.42;;;102.70;2227.20;;;;;;4967420;28;20023;-79
2021/03/21 12:22:04;;;;;;;38.67;26.05;;;102.70;2227.20;;;;;;4967794;28;20455;-80
2021/03/21 12:24:31;;;;;;;39.42;30.63;;;102.70;2227.20;;;;;;4967481;28;20097;-80
2021/03/21 12:26:59;;;;;;;55.13;41.08;;;102.70;2227.20;;;;;;4984512;28;20539;-79
2021/03/21 12:29:39;;;;;;;42.10;29.50;;;102.80;2227.20;;;;;;4966393;28;20027;-79
2021/03/21 12:32:26;;;;;;;63.28;48.90;;;102.80;2227.20;;;;;;4966541;28;20031;-79
2021/03/21 12:34:52;;;;;;;47.85;36.20;;;102.80;2227.20;;;;;;4967223;28;20026;-80
2021/03/21 12:37:41;;;;;;;71.53;49.53;;;102.80;2227.20;;;;;;4966738;28;20030;-79
2021/03/21 12:40:18;;;;;;;59.35;40.97;;;102.80;2227.20;;;;;;4967843;28;20097;-79
2021/03/21 12:42:47;;;;;;;43.10;30.02;;;102.80;2227.20;;;;;;4984788;28;20027;-80
2021/03/21 12:45:39;;;;;;;46.38;31.20;;;102.90;2227.20;;;;;;4966297;28;20057;-79
2021/03/21 12:48:05;;;;;;;51.15;36.53;;;102.80;2227.20;;;;;;4962618;28;20053;-79
2021/03/21 12:50:58;;;;;;;39.85;28.60;;;102.90;2227.20;;;;;;4983309;28;20130;-79
2021/03/21 12:53:30;;;;;;;47.63;32.72;;;102.90;2227.20;;;;;;4980830;28;20035;-79
2021/03/21 12:56:00;;;;;;;161.47;97.07;;;102.90;2227.20;;;;;;4983513;28;20027;-79
2021/03/21 12:58:26;;;;;;;134.85;86.20;;;102.90;2227.20;;;;;;4965668;28;20077;-79
2021/03/21 13:00:53;;;;;;;71.38;50.58;;;102.90;2227.20;;;;;;4965987;28;20035;-79
2021/03/21 13:03:33;;;;;;;139.30;87.03;;;102.90;2227.20;;;;;;4984702;28;20031;-79
2021/03/21 13:06:01;;;;;;;100.10;67.70;;;102.90;2227.20;;;;;;4966988;28;20247;-79
2021/03/21 13:08:28;;;;;;;65.03;46.17;;;102.90;2227.20;;;;;;4966894;28;20031;-79
2021/03/21 13:10:55;;;;;;;56.30;39.13;;;102.90;2227.20;;;;;;4983846;28;20121;-79
2021/03/21 13:13:21;;;;;;;56.05;40.00;;;102.90;2227.20;;;;;;4984299;28;20031;-79
2021/03/21 13:15:47;;;;;;;45.45;32.53;;;103.10;2227.20;;;;;;4966653;28;20031;-79
2021/03/21 13:18:18;;;;;;;56.38;40.25;;;102.90;2227.20;;;;;;4983912;28;20034;-79
2021/03/21 13:20:45;;;;;;;68.38;47.85;;;102.90;2227.20;;;;;;4966674;28;20425;-79
2021/03/21 13:23:11;;;;;;;84.40;68.28;;;102.90;2227.20;;;;;;4968305;28;20034;-79
2021/03/21 13:25:37;;;;;;;88.13;70.57;;;102.90;2227.20;;;;;;4967486;28;20037;-79
2021/03/21 13:28:05;;;;;;;70.22;51.03;;;103.00;2227.20;;;;;;4983767;28;20031;-79
2021/03/21 13:30:34;;;;;;;62.80;42.42;;;103.00;2227.20;;;;;;4985516;28;20039;-79
2021/03/21 13:33:01;;;;;;;58.70;38.70;;;102.90;2227.20;;;;;;4968429;28;20027;-79
2021/03/21 13:35:30;;;;;;;45.45;32.72;;;102.90;2227.20;;;;;;4985133;28;20485;-79
2021/03/21 13:37:56;;;;;;;49.42;34.00;;;102.80;2227.20;;;;;;4966376;28;20023;-79
2021/03/21 13:40:32;;;;;;;68.95;56.30;;;102.80;2227.20;;;;;;4985244;28;20082;-79
2021/03/21 13:42:59;;;;;;;67.78;51.15;;;102.90;2227.20;;;;;;4968040;28;20035;-79
2021/03/21 13:45:26;;;;;;;71.57;53.45;;;102.80;2227.20;;;;;;4986266;28;20054;-80
2021/03/21 13:47:52;;;;;;;60.97;42.17;;;102.70;2227.20;;;;;;4966353;28;20023;-80
2021/03/21 13:50:19;;;;;;;46.70;32.72;;;102.70;2227.20;;;;;;4983660;28;20041;-79
2021/03/21 13:52:46;;;;;;;47.03;31.80;;;102.80;2227.20;;;;;;4966522;28;20073;-78
2021/03/21 13:55:26;;;;;;;48.30;32.15;;;102.50;2227.20;;;;;;4986609;28;20029;-78
2021/03/21 13:57:53;;;;;;;107.45;71.30;;;102.80;2227.20;;;;;;4966469;28;20027;-77
2021/03/21 14:00:20;;;;;;;82.30;54.75;;;102.80;2227.20;;;;;;4982475;28;20027;-77
2021/03/21 14:02:46;;;;;;;81.55;54.97;;;102.90;2227.20;;;;;;4983197;28;20461;-77
2021/03/21 14:05:13;;;;;;;73.00;48.47;;;102.80;2227.20;;;;;;4985167;28;20039;-77
2021/03/21 14:07:39;;;;;;;108.63;66.55;;;102.80;2227.20;;;;;;4969668;28;20547;-78
2021/03/21 14:10:05;;;;;;;136.63;93.32;;;102.80;2227.20;;;;;;4982615;28;20121;-79
2021/03/21 14:12:31;;;;;;;88.82;60.08;;;102.80;2227.20;;;;;;4967022;28;20066;-80
2021/03/21 14:14:58;;;;;;;82.85;54.92;;;102.80;2227.20;;;;;;4984988;28;20031;-79
2021/03/21 14:17:24;;;;;;;75.97;49.30;;;102.80;2227.20;;;;;;4969442;28;20366;-80
2021/03/21 14:19:50;;;;;;;81.90;57.15;;;102.80;2227.20;;;;;;4966516;28;20069;-79
2021/03/21 14:22:17;;;;;;;88.55;56.88;;;102.80;2227.20;;;;;;4982722;28;20031;-79
2021/03/21 14:24:43;;;;;;;79.32;53.33;;;102.70;2227.20;;;;;;4965535;28;20030;-79
2021/03/21 14:27:09;;;;;;;85.13;56.35;;;102.80;2227.20;;;;;;4966980;28;20027;-79
2021/03/21 14:29:35;;;;;;;79.68;55.25;;;102.80;2227.20;;;;;;4984613;28;20069;-79
2021/03/21 14:32:01;;;;;;;64.70;45.83;;;102.70;2227.20;;;;;;4980766;28;20433;-79
2021/03/21 14:34:27;;;;;;;83.30;54.65;;;102.70;2227.20;;;;;;4964225;28;20117;-79
2021/03/21 14:36:53;;;;;;;109.38;74.13;;;102.70;2227.20;;;;;;4964873;28;20058;-79
2021/03/21 14:39:19;;;;;;;81.68;55.72;;;102.70;2227.20;;;;;;4965136;28;20027;-79
2021/03/21 14:41:45;;;;;;;72.75;52.47;;;102.70;2227.20;;;;;;4966089;28;20031;-79
2021/03/21 14:44:11;;;;;;;74.07;52.85;;;102.70;2227.20;;;;;;4981187;28;20033;-79
2021/03/21 14:46:37;;;;;;;70.85;50.88;;;102.60;2227.20;;;;;;4968767;28;20065;-80
2021/03/21 14:49:03;;;;;;;71.13;52.50;;;102.60;2227.20;;;;;;4985468;28;20019;-77
2021/03/21 14:51:29;;;;;;;64.35;45.30;;;102.60;2227.20;;;;;;4985847;28;20031;-78
2021/03/21 14:53:56;;;;;;;82.00;55.95;;;102.60;2227.20;;;;;;4968824;28;20023;-78
2021/03/21 14:56:22;;;;;;;65.22;47.13;;;102.50;2227.20;;;;;;4966001;28;20030;-79
2021/03/21 14:58:47;;;;;;;80.93;53.22;;;102.50;2227.20;;;;;;4965352;28;20019;-79
2021/03/21 15:01:13;;;;;;;114.35;79.18;;;102.40;2227.20;;;;;;4982915;28;20038;-78
2021/03/21 15:03:39;;;;;;;86.10;61.60;;;102.50;2227.20;;;;;;4964927;28;20023;-79
2021/03/21 15:06:05;;;;;;;179.55;99.03;;;102.50;2227.20;;;;;;4965366;28;20094;-79
2021/03/21 15:08:36;;;;;;;112.18;69.57;;;102.40;2227.20;;;;;;4983055;28;20039;-79
2021/03/21 15:11:02;;;;;;;103.82;85.45;;;102.40;2227.20;;;;;;4984619;28;20038;-79
2021/03/21 15:13:29;;;;;;;83.43;59.70;;;77.70;2227.20;;;;;;4981552;28;20027;-79
2021/03/21 15:15:56;;;;;;;55.75;39.33;;;77.60;2227.20;;;;;;4984048;28;20026;-79
2021/03/21 15:18:23;;;;;;;75.57;51.95;;;77.60;2227.20;;;;;;4982857;28;20034;-79
2021/03/21 15:20:51;;;;;;;147.45;91.28;;;77.50;2227.20;;;;;;4963925;28;20037;-79
2021/03/21 15:23:21;;;;;;;227.18;124.78;;;77.60;2227.20;;;;;;4980529;28;20037;-78
2021/03/21 15:25:49;;;;;;;201.27;104.97;;;77.40;2227.20;;;;;;4963878;28;20030;-79
2021/03/21 15:28:16;;;;;;;89.95;57.45;;;77.50;2227.20;;;;;;4980465;28;20023;-79
2021/03/21 15:30:42;;;;;;;231.13;133.25;;;77.40;2227.20;;;;;;4982870;28;20042;-79
2021/03/21 15:33:09;;;;;;;117.70;81.70;;;77.40;2227.20;;;;;;4981617;28;20026;-79
2021/03/21 15:35:39;;;;;;;103.07;71.50;;;77.40;2227.20;;;;;;4982969;28;20027;-79
2021/03/21 15:38:05;;;;;;;113.85;82.78;;;77.40;2227.20;;;;;;4966176;28;20023;-79
2021/03/21 15:40:35;;;;;;;168.15;104.90;;;77.40;2227.20;;;;;;4982991;28;20041;-80
2021/03/21 15:43:01;;;;;;;131.48;90.15;;;77.30;2227.20;;;;;;4965398;28;20026;-79
2021/03/21 15:45:29;;;;;;;112.78;81.53;;;77.30;2227.20;;;;;;4966060;28;20062;-80
2021/03/21 15:47:54;;;;;;;116.45;82.93;;;77.30;2227.20;;;;;;4964596;28;20031;-80
2021/03/21 15:50:23;;;;;;;88.50;62.40;;;77.30;2227.20;;;;;;4964669;28;20034;-79
2021/03/21 15:52:53;;;;;;;103.78;71.63;;;77.20;2227.20;;;;;;4982406;28;20014;-78
2021/03/21 15:55:19;;;;;;;98.57;68.03;;;77.20;2227.20;;;;;;4964738;28;20031;-79
2021/03/21 15:57:45;;;;;;;64.05;45.17;;;77.30;2227.20;;;;;;4964488;28;20373;-79
2021/03/21 16:00:22;;;;;;;81.65;51.00;;;77.30;2227.20;;;;;;4963652;28;20037;-79
2021/03/21 16:02:48;;;;;;;138.20;90.85;;;77.20;2227.20;;;;;;4963905;28;20027;-78
2021/03/21 16:05:14;;;;;;;178.85;110.75;;;77.10;2227.20;;;;;;4981637;28;20362;-79
2021/03/21 16:07:41;;;;;;;120.93;79.93;;;77.10;2227.20;;;;;;4966553;28;20034;-79
2021/03/21 16:10:07;;;;;;;77.97;56.38;;;77.00;2227.20;;;;;;4967658;28;20031;-79
2021/03/21 16:12:33;;;;;;;126.88;87.07;;;77.30;2227.20;;;;;;4967107;28;20031;-79
2021/03/21 16:14:59;;;;;;;209.77;131.82;;;77.20;2227.20;;;;;;4968404;28;20030;-79
2021/03/21 16:17:25;;;;;;;132.50;88.15;;;77.20;2227.20;;;;;;4968302;28;20023;-79
2021/03/21 16:19:51;;;;;;;74.88;46.72;;;77.20;2227.20;;;;;;4984626;28;20061;-79
2021/03/21 16:22:17;;;;;;;144.63;74.03;;;77.10;2227.20;;;;;;4967958;28;20031;-79
2021/03/21 16:24:43;;;;;;;222.35;121.75;;;77.30;2227.20;;;;;;4966512;28;20138;-79
2021/03/21 16:27:09;;;;;;;240.82;134.68;;;77.20;2227.20;;;;;;4965825;28;20122;-78
2021/03/21 16:29:35;;;;;;;155.52;96.25;;;77.40;2227.20;;;;;;4967533;28;20063;-79
2021/03/21 16:32:02;;;;;;;104.22;66.78;;;77.40;2227.20;;;;;;4983983;28;20078;-79
2021/03/21 16:34:28;;;;;;;210.60;128.23;;;77.50;2227.20;;;;;;4967517;28;20045;-79
2021/03/21 16:36:54;;;;;;;167.23;109.25;;;77.40;2227.20;;;;;;4967157;28;20027;-79
2021/03/21 16:39:20;;;;;;;183.25;119.93;;;77.40;2227.20;;;;;;4967772;28;20461;-78
2021/03/21 16:41:45;;;;;;;151.48;103.32;;;77.40;2227.20;;;;;;4985052;28;20031;-79
2021/03/21 16:44:11;;;;;;;137.88;97.30;;;77.40;2227.20;;;;;;4968462;28;20026;-79